Time;durP1;ratioP1;P1;durP2;ratioP2;P2;SDS_P1;SDS_P2;PMS_P1;PMS_P2;Temp;Humidity;BMP_temperature;BMP_pressure;BME280_temperature;BME280_humidity;BME280_pressure;Samples;Min_cycle;Max_cycle;Signal;HPM_P1;HPM_P2
2021/11/21 00:00:38;;;;;;;;;6.00;6.00;;;;;6.32;74.69;100929.53;4934927;29;11492;-72
2021/11/21 00:03:34;;;;;;;;;5.00;5.00;;;;;6.26;74.83;100948.00;4922729;29;11494;-72
2021/11/21 00:06:30;;;;;;;;;6.50;6.00;;;;;6.23;74.74;100950.53;4935184;29;11512;-72
2021/11/21 00:09:26;;;;;;;;;6.00;6.00;;;;;6.02;75.09;100950.78;4934944;29;11560;-73
2021/11/21 00:12:22;;;;;;;;;7.25;7.25;;;;;6.06;75.28;100957.34;4934741;29;11506;-72
2021/11/21 00:15:17;;;;;;;;;5.75;5.75;;;;;6.08;75.18;100941.38;4934903;29;11527;-73
2021/11/21 00:18:13;;;;;;;;;6.00;5.50;;;;;6.22;75.42;100938.75;4934578;29;12290;-73
2021/11/21 00:21:09;;;;;;;;;3.25;3.25;;;;;6.29;74.47;100941.94;4935631;29;11613;-72
2021/11/21 00:24:05;;;;;;;;;5.00;4.25;;;;;6.20;74.79;100954.66;4935129;29;11485;-73
2021/11/21 00:27:00;;;;;;;;;3.00;3.00;;;;;6.20;74.50;100954.66;4934880;29;11502;-72
2021/11/21 00:29:56;;;;;;;;;5.00;5.00;;;;;6.16;74.42;100959.13;4922596;29;11480;-72
2021/11/21 00:32:52;;;;;;;;;9.00;4.00;;;;;5.98;74.85;100963.50;4934669;29;11488;-72
2021/11/21 00:35:49;;;;;;;;;3.75;3.75;;;;;5.98;75.14;100966.22;4934177;29;11494;-72
2021/11/21 00:38:45;;;;;;;;;15.75;7.25;;;;;5.80;75.62;100975.19;4934606;29;11526;-72
2021/11/21 00:41:41;;;;;;;;;5.50;5.00;;;;;5.74;76.37;100968.09;4934730;29;11542;-73
2021/11/21 00:44:37;;;;;;;;;5.75;5.75;;;;;5.63;76.94;100978.41;4934608;29;11590;-72
2021/11/21 00:47:33;;;;;;;;;8.75;8.75;;;;;5.63;76.56;100978.41;4934639;29;11525;-72
2021/11/21 00:50:31;;;;;;;;;15.00;15.00;;;;;5.57;76.36;100974.06;4934804;29;11505;-72
2021/11/21 00:53:27;;;;;;;;;16.25;14.75;;;;;5.21;77.48;100962.63;4934708;29;11537;-73
2021/11/21 00:56:23;;;;;;;;;18.50;16.25;;;;;5.23;77.80;100966.72;4934625;29;11647;-72
2021/11/21 00:59:22;;;;;;;;;21.75;21.50;;;;;5.12;77.93;100962.41;4921544;29;12416;-72
2021/11/21 01:02:20;;;;;;;;;18.00;16.75;;;;;5.10;77.92;100972.88;4934750;29;11715;-72
2021/11/21 01:05:16;;;;;;;;;11.75;11.75;;;;;4.90;77.98;100970.28;4934198;29;11558;-72
2021/11/21 01:08:12;;;;;;;;;12.00;12.00;;;;;4.80;78.80;100970.38;4921760;29;11527;-72
2021/11/21 01:11:08;;;;;;;;;9.00;9.00;;;;;5.07;77.75;100970.72;4935025;29;11537;-72
2021/11/21 01:14:05;;;;;;;;;9.00;9.00;;;;;4.73;78.65;100970.69;4934192;29;11592;-73
2021/11/21 01:17:01;;;;;;;;;15.50;14.50;;;;;4.83;79.08;100967.03;4934181;29;11493;-73
2021/11/21 01:20:00;;;;;;;;;20.75;19.00;;;;;4.75;78.90;100968.47;4934442;29;11546;-73
2021/11/21 01:22:56;;;;;;;;;30.25;26.25;;;;;4.38;79.71;100960.78;4934580;29;11524;-73
2021/11/21 01:25:52;;;;;;;;;34.75;32.75;;;;;4.50;79.16;100958.50;4934945;29;11543;-73
2021/11/21 01:28:48;;;;;;;;;20.50;20.50;;;;;4.35;79.81;100958.59;4934248;29;11546;-73
2021/11/21 01:31:47;;;;;;;;;30.75;30.00;;;;;4.41;79.70;100974.72;4934360;29;11563;-72
2021/11/21 01:34:43;;;;;;;;;16.50;14.25;;;;;4.42;79.79;100965.41;4934324;29;11561;-72
2021/11/21 01:37:39;;;;;;;;;15.00;13.00;;;;;4.39;79.15;100976.13;4936880;29;11570;-72
2021/11/21 01:40:36;;;;;;;;;16.25;12.75;;;;;4.60;79.16;100971.31;4937380;29;11518;-72
2021/11/21 01:43:32;;;;;;;;;19.75;19.75;;;;;4.32;79.13;100970.13;4937765;29;11528;-72
2021/11/21 01:46:33;;;;;;;;;21.50;21.00;;;;;4.33;79.02;100975.31;4931973;29;11511;-72
2021/11/21 01:49:29;;;;;;;;;29.75;29.75;;;;;4.27;79.69;100978.38;4919141;29;11555;-72
2021/11/21 01:52:25;;;;;;;;;19.00;17.50;;;;;4.33;78.84;100985.47;4918594;29;11519;-72
2021/11/21 01:55:21;;;;;;;;;20.75;20.75;;;;;4.01;79.63;100980.41;4919231;29;11681;-72
2021/11/21 01:58:17;;;;;;;;;13.00;13.00;;;;;4.19;79.19;100986.06;4918528;29;11530;-72
2021/11/21 02:01:13;;;;;;;;;12.00;12.00;;;;;4.18;79.12;100987.16;4919113;29;11523;-72
2021/11/21 02:04:08;;;;;;;;;14.75;13.25;;;;;4.17;79.55;100979.25;4918378;29;11545;-72
2021/11/21 02:07:04;;;;;;;;;7.00;7.00;;;;;3.88;79.82;100979.06;4937277;29;11549;-72
2021/11/21 02:10:00;;;;;;;;;7.75;7.75;;;;;4.08;79.79;100976.28;4924396;29;11489;-72
2021/11/21 02:12:56;;;;;;;;;10.00;9.00;;;;;4.01;79.58;100981.22;4937300;29;11472;-72
2021/11/21 02:15:51;;;;;;;;;12.50;10.75;;;;;4.13;80.11;100991.84;4936870;29;11488;-72
2021/11/21 02:18:48;;;;;;;;;7.00;7.00;;;;;4.00;78.86;100985.06;4937920;29;11539;-72
2021/11/21 02:21:44;;;;;;;;;0.00;0.00;;;;;3.76;80.02;100992.25;4937871;29;11476;-73
2021/11/21 02:24:39;;;;;;;;;8.50;8.50;;;;;3.76;80.54;100997.75;4936978;29;11462;-72
2021/11/21 02:27:35;;;;;;;;;11.25;11.25;;;;;3.66;80.72;101000.47;4937361;28;11539;-72
2021/11/21 02:30:31;;;;;;;;;5.00;5.00;;;;;3.62;80.45;100997.50;4935712;29;11515;-72
2021/11/21 02:33:27;;;;;;;;;6.25;6.25;;;;;3.74;79.44;100995.25;4936929;29;11485;-72
2021/11/21 02:36:23;;;;;;;;;7.75;7.75;;;;;3.74;80.10;100991.69;4936879;29;11477;-72
2021/11/21 02:39:20;;;;;;;;;6.00;6.00;;;;;3.62;79.81;100990.09;4925862;29;11557;-72
2021/11/21 02:42:22;;;;;;;;;4.00;4.00;;;;;3.36;80.65;101002.16;4936016;29;11526;-72
2021/11/21 02:45:19;;;;;;;;;14.00;9.00;;;;;3.32;81.41;101001.91;4936150;29;11516;-71
2021/11/21 02:48:16;;;;;;;;;7.00;7.00;;;;;3.29;81.97;101002.44;4935454;29;12255;-72
2021/11/21 02:51:14;;;;;;;;;7.00;7.00;;;;;3.11;82.52;101004.91;4936756;29;11482;-72
2021/11/21 02:54:10;;;;;;;;;7.50;5.00;;;;;3.23;82.62;101002.75;4936390;29;11490;-72
2021/11/21 02:57:06;;;;;;;;;9.25;9.25;;;;;3.26;82.64;101013.13;4936319;29;11531;-72
2021/11/21 03:00:07;;;;;;;;;9.25;8.50;;;;;3.44;82.69;101011.72;4935971;29;11469;-72
2021/11/21 03:03:02;;;;;;;;;10.50;10.50;;;;;3.74;82.31;101024.53;4936457;29;11495;-72
2021/11/21 03:05:58;;;;;;;;;7.25;7.25;;;;;3.83;82.15;101025.59;4935878;29;11772;-72
2021/11/21 03:08:55;;;;;;;;;11.25;11.25;;;;;3.95;81.83;101019.84;4926607;29;11478;-73
2021/11/21 03:11:53;;;;;;;;;10.00;8.75;;;;;4.02;81.20;101012.97;4935711;29;11483;-73
2021/11/21 03:14:50;;;;;;;;;7.50;5.25;;;;;4.13;80.67;101016.47;4934511;29;11494;-72
2021/11/21 03:17:46;;;;;;;;;7.50;7.50;;;;;4.25;80.18;101021.63;4935956;29;11582;-73
2021/11/21 03:20:42;;;;;;;;;5.00;5.00;;;;;4.33;79.84;101027.34;4935746;29;11505;-73
2021/11/21 03:23:40;;;;;;;;;8.00;6.50;;;;;4.40;79.21;101027.03;4935987;29;11573;-72
2021/11/21 03:26:36;;;;;;;;;5.00;4.25;;;;;4.22;79.31;101024.91;4935756;29;11573;-73
2021/11/21 03:29:32;;;;;;;;;5.50;5.50;;;;;4.09;80.59;101015.41;4931805;29;11487;-73
2021/11/21 03:32:28;;;;;;;;;5.00;5.00;;;;;3.89;81.25;101016.28;4935830;29;11504;-73
2021/11/21 03:35:24;;;;;;;;;11.00;11.00;;;;;4.19;81.01;101018.09;4935158;29;11507;-72
2021/11/21 03:38:20;;;;;;;;;8.00;8.00;;;;;4.28;80.28;101019.16;4935494;29;11513;-73
2021/11/21 03:41:16;;;;;;;;;8.00;8.00;;;;;4.29;80.11;101009.81;4935752;29;11604;-73
2021/11/21 03:44:11;;;;;;;;;5.50;5.50;;;;;4.29;80.27;101009.00;4935336;29;12296;-73
2021/11/21 03:47:07;;;;;;;;;6.00;6.00;;;;;4.25;80.25;101005.22;4922853;29;11498;-73
2021/11/21 03:50:04;;;;;;;;;4.75;4.00;;;;;4.18;80.45;101013.72;4935075;29;11481;-73
2021/11/21 03:53:00;;;;;;;;;7.75;7.50;;;;;4.22;80.49;101009.34;4935419;29;12311;-73
2021/11/21 03:55:56;;;;;;;;;4.25;4.25;;;;;4.27;80.52;101012.03;4935369;29;11488;-73
2021/11/21 03:58:51;;;;;;;;;0.00;0.00;;;;;4.34;80.48;101006.25;4922459;29;11588;-73
2021/11/21 04:01:49;;;;;;;;;10.75;10.75;;;;;4.34;80.20;101006.25;4935060;29;11512;-72
2021/11/21 04:04:44;;;;;;;;;11.00;11.00;;;;;4.22;80.55;101013.97;4934688;29;11513;-72
2021/11/21 04:07:41;;;;;;;;;12.00;12.00;;;;;3.95;81.03;101012.44;4916133;29;11618;-72
2021/11/21 04:10:37;;;;;;;;;12.25;12.25;;;;;3.95;80.81;101009.69;4916099;29;11501;-72
2021/11/21 04:13:32;;;;;;;;;15.25;13.50;;;;;3.92;80.86;101003.97;4916832;29;11552;-73
2021/11/21 04:16:29;;;;;;;;;9.50;9.50;;;;;3.81;81.38;101011.38;4916928;29;11637;-72
2021/11/21 04:19:25;;;;;;;;;12.50;7.25;;;;;3.77;81.25;101011.13;4925728;29;11577;-73
2021/11/21 04:22:20;;;;;;;;;10.50;10.50;;;;;3.81;81.05;101033.28;4934706;29;11506;-72
2021/11/21 04:25:16;;;;;;;;;9.00;9.00;;;;;3.82;80.82;101037.66;4934372;29;11575;-72
2021/11/21 04:28:12;;;;;;;;;8.50;8.50;;;;;3.79;80.92;101044.50;4934943;29;11513;-72
2021/11/21 04:31:08;;;;;;;;;16.00;14.75;;;;;3.69;81.45;101051.91;4934820;29;11610;-72
2021/11/21 04:34:04;;;;;;;;;12.75;11.00;;;;;3.66;81.11;101049.72;4934718;29;12322;-72
2021/11/21 04:37:01;;;;;;;;;11.25;10.00;;;;;3.71;81.19;101046.97;4922198;29;11616;-72
2021/11/21 04:39:57;;;;;;;;;10.75;9.50;;;;;3.95;81.52;101061.69;4934454;29;11589;-72
2021/11/21 04:42:53;;;;;;;;;14.50;11.50;;;;;3.84;81.64;101058.19;4934540;29;11484;-72
2021/11/21 04:45:50;;;;;;;;;9.00;9.00;;;;;4.02;81.43;101058.69;4934421;29;11495;-71
2021/11/21 04:48:45;;;;;;;;;14.00;14.00;;;;;4.10;81.10;101058.09;4933558;29;11493;-72
2021/11/21 04:51:41;;;;;;;;;9.50;8.50;;;;;4.27;81.01;101063.25;4934699;29;11622;-72
2021/11/21 04:54:38;;;;;;;;;9.00;9.00;;;;;4.17;80.94;101059.44;4933687;29;12356;-72
2021/11/21 04:57:39;;;;;;;;;7.00;7.00;;;;;4.26;80.53;101058.88;4933845;29;11492;-72
2021/11/21 05:00:34;;;;;;;;;8.75;8.75;;;;;4.14;81.29;101060.03;4905335;29;11551;-73
2021/11/21 05:03:30;;;;;;;;;13.75;12.00;;;;;4.10;81.18;101069.06;4922501;29;11541;-73
2021/11/21 05:06:26;;;;;;;;;8.25;7.50;;;;;4.14;81.11;101054.53;4933565;29;11609;-73
2021/11/21 05:09:22;;;;;;;;;11.25;11.25;;;;;4.07;81.32;101044.97;4933937;29;11480;-72
2021/11/21 05:12:18;;;;;;;;;10.00;10.00;;;;;4.10;81.32;101042.50;4937973;29;11585;-72
2021/11/21 05:15:19;;;;;;;;;8.25;8.25;;;;;4.01;80.78;101044.19;4938087;29;11630;-72
2021/11/21 05:18:15;;;;;;;;;8.25;8.25;;;;;3.99;81.01;101048.25;4937912;29;11620;-73
2021/11/21 05:21:11;;;;;;;;;11.00;9.00;;;;;3.94;81.74;101054.59;4937870;29;11586;-72
2021/11/21 05:24:07;;;;;;;;;10.25;10.25;;;;;4.04;81.02;101049.06;4937851;29;11515;-72
2021/11/21 05:27:03;;;;;;;;;10.00;10.00;;;;;4.04;81.13;101054.56;4925007;29;11527;-71
2021/11/21 05:29:58;;;;;;;;;14.00;12.00;;;;;4.01;81.83;101059.78;4936341;29;11669;-72
2021/11/21 05:32:54;;;;;;;;;13.75;13.75;;;;;4.19;81.35;101049.03;4936970;29;11523;-72
2021/11/21 05:35:50;;;;;;;;;16.00;15.00;;;;;4.23;81.53;101048.50;4937723;29;11506;-72
2021/11/21 05:38:45;;;;;;;;;12.00;12.00;;;;;4.19;81.58;101054.50;4936538;29;11520;-72
2021/11/21 05:41:41;;;;;;;;;15.50;10.50;;;;;4.33;81.26;101054.72;4938330;29;12239;-72
2021/11/21 05:44:37;;;;;;;;;13.00;12.50;;;;;4.24;81.66;101047.38;4937403;29;11522;-72
2021/11/21 05:47:33;;;;;;;;;17.50;14.25;;;;;4.29;81.32;101042.69;4938245;29;11529;-71
2021/11/21 05:50:28;;;;;;;;;23.00;18.25;;;;;4.29;82.03;101052.81;4937376;29;12584;-72
2021/11/21 05:53:24;;;;;;;;;15.75;15.75;;;;;4.32;82.32;101060.50;4937667;29;11525;-71
2021/11/21 05:56:20;;;;;;;;;14.25;14.00;;;;;4.57;82.02;101068.59;4937332;29;11607;-72
2021/11/21 05:59:16;;;;;;;;;15.75;15.25;;;;;4.74;82.44;101063.56;4937204;28;11527;-72
2021/11/21 06:02:11;;;;;;;;;16.25;15.25;;;;;5.08;81.28;101068.28;4937411;29;11515;-71
2021/11/21 06:05:08;;;;;;;;;27.75;26.50;;;;;5.34;80.24;101076.31;4937363;29;11605;-71
2021/11/21 06:08:06;;;;;;;;;29.25;28.75;;;;;5.46;80.27;101074.88;4937260;29;11551;-71
2021/11/21 06:11:02;;;;;;;;;30.50;30.50;;;;;5.61;80.50;101071.16;4937935;29;11612;-71
2021/11/21 06:13:58;;;;;;;;;31.75;28.00;;;;;5.81;80.20;101067.38;4937178;29;11621;-71
2021/11/21 06:16:53;;;;;;;;;37.00;36.25;;;;;5.94;79.79;101071.41;4937100;29;11575;-72
2021/11/21 06:19:49;;;;;;;;;30.75;28.00;;;;;5.97;80.28;101079.88;4937512;29;11684;-71
2021/11/21 06:22:45;;;;;;;;;37.50;29.75;;;;;6.00;80.66;101067.53;4936400;29;11547;-72
2021/11/21 06:25:44;;;;;;;;;28.00;28.00;;;;;5.93;80.95;101069.78;4937565;29;11763;-72
2021/11/21 06:28:40;;;;;;;;;24.50;24.50;;;;;6.20;81.32;101086.50;4936714;29;11529;-71
2021/11/21 06:31:36;;;;;;;;;17.25;17.25;;;;;6.23;81.06;101085.13;4935697;29;11532;-71
2021/11/21 06:34:32;;;;;;;;;24.00;24.00;;;;;6.40;80.97;101083.53;4936637;29;11548;-72
2021/11/21 06:37:28;;;;;;;;;28.75;27.50;;;;;6.32;81.53;101083.34;4936785;29;11607;-72
2021/11/21 06:40:24;;;;;;;;;23.50;23.50;;;;;6.61;80.84;101092.34;4936587;29;11571;-73
2021/11/21 06:43:20;;;;;;;;;26.25;24.75;;;;;6.76;80.43;101093.25;4938942;29;11550;-72
2021/11/21 06:46:16;;;;;;;;;22.00;18.00;;;;;6.79;80.56;101096.22;4932201;29;11524;-72
2021/11/21 06:49:13;;;;;;;;;15.50;15.50;;;;;6.54;81.43;101086.38;4930467;29;11560;-72
2021/11/21 06:52:09;;;;;;;;;18.50;18.50;;;;;6.69;81.59;101096.38;4929887;29;11666;-72
2021/11/21 06:55:07;;;;;;;;;22.50;22.50;;;;;6.83;81.21;101097.28;4936070;29;11515;-72
2021/11/21 06:58:02;;;;;;;;;24.00;24.00;;;;;6.93;81.09;101102.63;4935928;29;11532;-72
2021/11/21 07:00:58;;;;;;;;;17.25;16.50;;;;;7.11;80.54;101105.69;4935719;29;11549;-73
2021/11/21 07:03:54;;;;;;;;;13.25;13.25;;;;;7.06;80.55;101105.78;4935218;29;11563;-73
2021/11/21 07:06:50;;;;;;;;;10.75;7.50;;;;;7.11;81.31;101101.00;4934662;29;11529;-73
2021/11/21 07:09:19;;;;;;;;;18.25;15.25;;;;;7.36;81.30;101101.72;4936925;29;11495;-73
2021/11/21 07:12:15;;;;;;;;;10.25;10.25;;;;;7.24;80.78;101105.75;4923513;29;11520;-72
2021/11/21 07:15:13;;;;;;;;;15.75;14.25;;;;;7.48;80.35;101105.66;4923423;29;11532;-72
2021/11/21 07:18:09;;;;;;;;;13.50;13.50;;;;;7.74;79.50;101111.56;4935931;29;11580;-72
2021/11/21 07:21:04;;;;;;;;;9.25;9.25;;;;;7.77;79.63;101115.66;4935945;29;11468;-72
2021/11/21 07:24:00;;;;;;;;;9.75;9.00;;;;;7.68;79.07;101111.94;4935893;29;11410;-72
2021/11/21 07:26:57;;;;;;;;;11.00;10.00;;;;;8.11;78.72;101109.78;4936248;29;11417;-72
2021/11/21 07:29:52;;;;;;;;;8.00;8.00;;;;;8.26;78.13;101105.94;4935846;29;11522;-72
2021/11/21 07:32:49;;;;;;;;;6.50;6.50;;;;;8.49;76.53;101115.16;4935698;29;11437;-72
2021/11/21 07:35:45;;;;;;;;;8.75;8.75;;;;;8.59;76.51;101117.72;4935406;29;11450;-71
2021/11/21 07:38:41;;;;;;;;;6.00;6.00;;;;;8.13;77.42;101109.47;4935625;29;12348;-72
2021/11/21 07:41:37;;;;;;;;;6.00;6.00;;;;;8.43;77.35;101108.09;4935705;29;11437;-71
2021/11/21 07:44:33;;;;;;;;;12.50;10.75;;;;;8.56;77.21;101119.13;4935580;29;11564;-73
2021/11/21 07:47:29;;;;;;;;;6.50;6.50;;;;;8.68;76.08;101112.31;4922899;29;11478;-71
2021/11/21 07:50:25;;;;;;;;;7.50;7.50;;;;;8.46;77.42;101115.78;4935586;29;11431;-71
2021/11/21 07:53:20;;;;;;;;;6.25;6.00;;;;;8.48;77.06;101100.56;4935552;29;11428;-71
2021/11/21 07:56:18;;;;;;;;;8.50;6.75;;;;;8.73;76.74;101098.38;4935263;29;11423;-72
2021/11/21 07:59:14;;;;;;;;;6.00;6.00;;;;;8.68;76.48;101099.31;4922327;29;11456;-72
2021/11/21 08:02:09;;;;;;;;;3.00;3.00;;;;;8.81;76.57;101092.97;4935442;29;11445;-72
2021/11/21 08:05:07;;;;;;;;;14.50;10.50;;;;;8.71;76.38;101084.09;4935152;29;11469;-72
2021/11/21 08:08:04;;;;;;;;;8.00;8.00;;;;;8.81;76.31;101073.66;4935156;29;11448;-73
2021/11/21 08:11:00;;;;;;;;;11.75;9.25;;;;;8.83;75.87;101062.34;4935302;29;11573;-74
2021/11/21 08:13:56;;;;;;;;;7.25;6.50;;;;;8.99;75.21;101066.38;4935026;29;11637;-74
2021/11/21 08:16:51;;;;;;;;;7.50;7.50;;;;;8.86;74.89;101065.28;4935182;29;11435;-74
2021/11/21 08:19:47;;;;;;;;;7.50;7.50;;;;;9.10;74.64;101062.22;4935027;29;11439;-73
2021/11/21 08:22:43;;;;;;;;;7.25;7.25;;;;;8.87;74.27;101063.31;4935147;29;11585;-72
2021/11/21 08:25:38;;;;;;;;;12.75;11.75;;;;;9.34;74.18;101064.69;4934897;29;11428;-71
2021/11/21 08:28:38;;;;;;;;;8.00;8.00;;;;;9.58;72.60;101056.09;4934714;29;11496;-73
2021/11/21 08:31:33;;;;;;;;;9.75;9.75;;;;;9.26;72.51;101054.41;4922328;29;11168;-73
2021/11/21 08:34:30;;;;;;;;;7.75;7.75;;;;;9.46;72.46;101053.91;4934671;29;11307;-71
2021/11/21 08:37:26;;;;;;;;;11.50;11.50;;;;;9.46;72.17;101059.44;4935060;29;10922;-71
2021/11/21 08:40:21;;;;;;;;;11.25;11.25;;;;;9.57;71.81;101042.59;4934841;29;11028;-71
2021/11/21 08:43:17;;;;;;;;;11.00;10.00;;;;;9.53;72.97;101030.56;4934795;29;10916;-72
2021/11/21 08:46:13;;;;;;;;;11.50;11.50;;;;;9.96;71.74;101037.13;4937330;29;11775;-74
2021/11/21 08:49:09;;;;;;;;;13.00;13.00;;;;;10.11;70.65;101035.88;4938653;29;11161;-72
2021/11/21 08:52:06;;;;;;;;;11.00;11.00;;;;;10.19;70.34;101046.16;4938740;29;11015;-71
2021/11/21 08:55:03;;;;;;;;;12.75;11.50;;;;;10.33;70.04;101037.78;4938729;29;10959;-72
2021/11/21 08:57:59;;;;;;;;;8.00;8.00;;;;;10.09;70.86;101048.41;4938470;29;11121;-72
2021/11/21 09:00:55;;;;;;;;;9.50;9.50;;;;;10.30;71.37;101041.19;4938656;29;10691;-71
2021/11/21 09:03:51;;;;;;;;;10.75;8.50;;;;;10.38;70.87;101043.19;4938402;29;10709;-72
2021/11/21 09:06:47;;;;;;;;;9.50;9.00;;;;;10.45;70.87;101042.72;4938455;29;10627;-72
2021/11/21 09:09:43;;;;;;;;;9.00;8.25;;;;;10.32;70.72;101047.22;4938696;29;10473;-71
2021/11/21 09:12:41;;;;;;;;;6.00;6.00;;;;;10.57;70.24;101043.69;4938345;29;10816;-72
2021/11/21 09:15:37;;;;;;;;;8.25;7.75;;;;;10.60;70.14;101046.97;4938339;29;10736;-72
2021/11/21 09:18:32;;;;;;;;;9.00;9.00;;;;;10.86;69.40;101039.53;4938166;29;10687;-72
2021/11/21 09:21:28;;;;;;;;;7.25;6.50;;;;;10.99;69.05;101038.56;4937264;29;10569;-73
2021/11/21 09:24:25;;;;;;;;;6.75;6.75;;;;;10.97;68.85;101028.97;4934954;29;11274;-73
2021/11/21 09:27:20;;;;;;;;;6.75;4.00;;;;;11.22;67.86;101024.56;4937871;29;10563;-73
2021/11/21 09:30:17;;;;;;;;;2.00;2.00;;;;;10.99;68.09;101024.72;4937097;29;10554;-73
2021/11/21 09:33:12;;;;;;;;;6.00;6.00;;;;;11.20;67.85;101010.22;4932115;29;10380;-74
2021/11/21 09:36:12;;;;;;;;;5.00;5.00;;;;;10.95;67.61;101007.13;4927693;29;10503;-73
2021/11/21 09:39:09;;;;;;;;;8.00;8.00;;;;;11.16;66.31;101010.06;4937447;29;10587;-73
2021/11/21 09:42:05;;;;;;;;;4.25;4.25;;;;;11.19;66.52;101008.56;4937411;29;10549;-74
2021/11/21 09:44:33;;;;;;;;;2.50;2.50;;;;;10.80;66.70;101013.94;4938032;29;10426;-73
2021/11/21 09:47:28;;;;;;;;;4.00;4.00;;;;;11.22;65.45;101000.44;4937474;29;10261;-73
2021/11/21 09:50:26;;;;;;;;;6.00;6.00;;;;;11.08;65.75;100994.28;4937474;29;10347;-73
2021/11/21 09:53:23;;;;;;;;;6.75;5.25;;;;;10.72;65.97;100989.06;4937484;29;10491;-73
2021/11/21 09:56:18;;;;;;;;;6.00;6.00;;;;;10.82;65.29;100984.03;4919407;29;10381;-73
2021/11/21 09:59:14;;;;;;;;;6.75;6.75;;;;;10.96;65.63;100978.31;4935077;28;10744;-74
2021/11/21 10:02:22;;;;;;;;;1.00;0.00;;;;;11.09;65.12;100966.25;4934061;29;10356;-72
2021/11/21 10:05:27;;;;;;;;;6.25;6.25;;;;;10.93;65.87;100973.44;4921134;29;10301;-72
2021/11/21 10:08:26;;;;;;;;;7.00;6.00;;;;;10.60;66.53;100969.53;4937090;29;10620;-72
2021/11/21 10:11:21;;;;;;;;;6.25;5.50;;;;;10.91;66.28;100970.19;4932118;29;10554;-74
2021/11/21 10:14:19;;;;;;;;;8.50;8.00;;;;;10.76;66.47;100960.44;4930600;29;10707;-74
2021/11/21 10:17:19;;;;;;;;;6.75;4.00;;;;;11.09;65.61;100957.13;4932991;29;10469;-73
2021/11/21 10:20:16;;;;;;;;;5.50;5.50;;;;;11.31;65.53;100945.88;4930292;29;10596;-73
2021/11/21 10:23:11;;;;;;;;;9.00;8.00;;;;;11.46;65.26;100957.56;4934323;29;10630;-72
2021/11/21 10:26:08;;;;;;;;;8.00;8.00;;;;;11.27;65.07;100956.00;4936997;29;10332;-72
2021/11/21 10:29:26;;;;;;;;;9.00;9.00;;;;;11.29;65.36;100950.94;4905026;29;10334;-70
2021/11/21 10:32:32;;;;;;;;;11.50;10.50;;;;;11.31;66.56;100951.41;4931129;29;11346;-72
2021/11/21 10:35:28;;;;;;;;;10.00;9.00;;;;;11.61;65.21;100941.22;4936854;29;10664;-72
2021/11/21 10:38:38;;;;;;;;;8.00;8.00;;;;;11.75;65.08;100948.50;4937176;29;10472;-72
2021/11/21 10:41:37;;;;;;;;;5.00;5.00;;;;;11.53;64.98;100963.41;4936352;29;10403;-70
2021/11/21 10:44:32;;;;;;;;;8.50;7.00;;;;;11.84;64.25;100949.31;4935064;29;10170;-72
2021/11/21 10:47:48;;;;;;;;;9.25;9.25;;;;;11.95;64.67;100942.22;4935470;29;10028;-72
2021/11/21 10:50:49;;;;;;;;;8.75;8.75;;;;;11.72;65.37;100952.72;4935101;29;10275;-72
2021/11/21 10:53:46;;;;;;;;;6.50;6.50;;;;;12.06;64.30;100949.03;4935283;29;11019;-72
2021/11/21 10:57:03;;;;;;;;;8.00;8.00;;;;;11.68;65.32;100944.28;4935562;29;10181;-72
2021/11/21 11:00:06;;;;;;;;;8.00;8.00;;;;;11.90;65.28;100947.97;4929216;28;10283;-72
2021/11/21 11:03:01;;;;;;;;;8.25;7.50;;;;;11.75;65.04;100942.97;4935684;29;10203;-71
2021/11/21 11:05:57;;;;;;;;;9.00;8.25;;;;;11.91;65.44;100936.56;4917280;29;10302;-72
2021/11/21 11:08:53;;;;;;;;;8.00;8.00;;;;;11.66;65.98;100931.91;4921399;29;10255;-72
2021/11/21 11:11:50;;;;;;;;;6.75;6.75;;;;;11.85;65.85;100935.09;4934578;29;11167;-72
2021/11/21 11:14:46;;;;;;;;;9.75;9.75;;;;;11.75;66.29;100935.47;4936985;29;10863;-71
2021/11/21 11:17:42;;;;;;;;;9.00;9.00;;;;;11.81;66.23;100936.09;4935436;29;10291;-74
2021/11/21 11:20:44;;;;;;;;;7.00;7.00;;;;;11.66;66.66;100948.53;4935594;29;10236;-72
2021/11/21 11:23:41;;;;;;;;;9.00;8.50;;;;;11.68;66.69;100949.81;4930881;29;11045;-73
2021/11/21 11:26:36;;;;;;;;;9.25;9.25;;;;;11.49;67.89;100940.28;4930582;29;10387;-71
2021/11/21 11:29:43;;;;;;;;;10.00;9.25;;;;;11.52;67.83;100934.09;4934638;29;10562;-72
2021/11/21 11:32:41;;;;;;;;;7.50;7.50;;;;;11.29;68.83;100939.03;4931450;29;10545;-72
2021/11/21 11:35:43;;;;;;;;;8.50;8.00;;;;;11.31;69.44;100923.72;4930360;29;10329;-71
2021/11/21 11:38:25;;;;;;;;;4.75;4.75;;;;;11.60;68.86;100927.69;4935872;29;10467;-72
2021/11/21 11:41:29;;;;;;;;;11.00;9.00;;;;;12.01;68.06;100926.22;4935713;29;10334;-71
2021/11/21 11:44:25;;;;;;;;;8.00;8.00;;;;;11.76;68.29;100917.69;4935874;29;10395;-71
2021/11/21 11:47:25;;;;;;;;;9.25;9.25;;;;;11.93;68.23;100923.16;4935277;29;10426;-72
2021/11/21 11:50:44;;;;;;;;;8.25;8.25;;;;;12.09;67.45;100917.84;4934867;29;10394;-70
2021/11/21 11:53:48;;;;;;;;;11.50;10.00;;;;;11.83;68.60;100918.00;4935016;29;10159;-71
2021/11/21 11:57:04;;;;;;;;;10.75;10.75;;;;;11.92;68.28;100912.41;4930352;29;10241;-72
2021/11/21 12:00:25;;;;;;;;;8.50;8.50;;;;;12.11;68.01;100917.50;4934429;29;11056;-72
2021/11/21 12:03:38;;;;;;;;;14.50;14.50;;;;;12.10;68.15;100927.78;4934707;29;10117;-73
2021/11/21 12:06:40;;;;;;;;;12.75;12.75;;;;;12.44;67.75;100921.22;4921352;29;10111;-73
2021/11/21 12:09:37;;;;;;;;;10.50;9.50;;;;;12.38;67.52;100921.75;4932968;29;10331;-73
2021/11/21 12:12:56;;;;;;;;;12.25;12.25;;;;;12.63;66.65;100919.91;4934278;29;10088;-73
2021/11/21 12:15:54;;;;;;;;;18.00;18.00;;;;;12.87;65.83;100911.69;4934564;29;10020;-73
2021/11/21 12:18:55;;;;;;;;;55.00;47.33;;;;;13.11;67.00;100912.94;4927691;29;10124;-74
2021/11/21 12:21:50;;;;;;;;;55.50;45.25;;;;;12.82;66.34;100905.56;4921813;29;8866;-72
2021/11/21 12:24:46;;;;;;;;;13.25;13.25;;;;;12.60;66.84;100901.19;4926253;29;10686;-73
2021/11/21 12:27:52;;;;;;;;;16.75;16.00;;;;;12.58;67.12;100911.81;4934142;29;9912;-72
2021/11/21 12:30:49;;;;;;;;;14.75;14.75;;;;;12.66;67.26;100905.38;4928985;29;10029;-73
2021/11/21 12:33:44;;;;;;;;;20.00;18.50;;;;;12.66;66.91;100903.41;4935433;28;10208;-71
2021/11/21 12:37:06;;;;;;;;;13.50;13.50;;;;;12.79;67.27;100904.25;4933274;29;10661;-71
2021/11/21 12:40:08;;;;;;;;;48.75;41.00;;;;;12.86;67.35;100904.53;4928274;29;10103;-72
2021/11/21 12:43:09;;;;;;;;;14.25;12.00;;;;;12.75;67.05;100901.38;4929189;29;11502;-72
2021/11/21 12:46:06;;;;;;;;;10.75;10.25;;;;;12.75;66.80;100911.66;4933547;29;9866;-73
2021/11/21 12:49:08;;;;;;;;;23.00;23.00;;;;;12.73;67.36;100912.00;4934557;29;9950;-72
2021/11/21 12:52:12;;;;;;;;;16.25;14.50;;;;;12.71;67.07;100905.97;4933909;29;10464;-72
2021/11/21 12:55:15;;;;;;;;;11.00;11.00;;;;;12.32;68.43;100907.25;4934170;29;10180;-73
2021/11/21 12:58:21;;;;;;;;;28.00;27.75;;;;;12.42;68.42;100904.09;4920925;29;10029;-72
2021/11/21 13:01:17;;;;;;;;;11.50;11.50;;;;;12.09;69.24;100901.22;4934068;29;10609;-72
2021/11/21 13:04:13;;;;;;;;;17.25;17.25;;;;;12.20;69.26;100901.66;4930796;29;10051;-72
2021/11/21 13:07:26;;;;;;;;;22.75;20.25;;;;;12.03;70.06;100893.44;4929898;29;10500;-72
2021/11/21 13:10:22;;;;;;;;;16.25;15.75;;;;;12.12;69.77;100896.97;4932278;29;11059;-72
2021/11/21 13:13:24;;;;;;;;;11.00;11.00;;;;;12.03;70.44;100898.97;4926551;29;10517;-72
2021/11/21 13:16:22;;;;;;;;;190.33;170.67;;;;;12.24;74.89;100897.03;4927124;29;10448;-74
2021/11/21 13:19:18;;;;;;;;;267.75;220.50;;;;;12.85;79.14;100886.25;4933845;29;8854;-74
2021/11/21 13:22:14;;;;;;;;;76.00;61.50;;;;;12.85;72.60;100891.81;4924619;29;9619;-75
2021/11/21 13:25:09;;;;;;;;;75.00;61.00;;;;;12.95;73.88;100883.03;4933964;29;11556;-75
2021/11/21 13:28:29;;;;;;;;;115.50;99.50;;;;;13.11;74.92;100893.50;4932889;29;11560;-75
2021/11/21 13:31:32;;;;;;;;;150.33;120.00;;;;;13.18;74.32;100885.41;4933690;29;8969;-75
2021/11/21 13:34:29;;;;;;;;;94.00;78.75;;;;;12.93;71.79;100888.13;4924763;29;8846;-75
2021/11/21 13:37:25;;;;;;;;;105.50;95.75;;;;;12.94;73.97;100889.75;4936574;29;11565;-75
2021/11/21 13:40:20;;;;;;;;;99.00;89.50;;;;;13.01;73.78;100883.66;4936366;29;11732;-75